createdAt,value
2016-05-16T00:00:10.631Z,5.47
2016-05-16T00:01:24.040Z,5.47
2016-05-16T00:02:04.387Z,5.47
2016-05-16T00:04:23.626Z,5.44
2016-05-16T00:05:08.206Z,5.54
2016-05-16T00:06:07.585Z,5.52
2016-05-16T00:07:07.462Z,5.64
2016-05-16T00:08:09.043Z,5.72
2016-05-16T00:09:07.639Z,5.79
2016-05-16T00:10:07.502Z,5.87
2016-05-16T00:11:07.707Z,5.94
2016-05-16T00:12:26.741Z,5.94
2016-05-16T00:13:20.448Z,6.06
2016-05-16T00:15:10.281Z,6.09
2016-05-16T00:15:26.000Z,6.15
2016-05-16T00:16:26.018Z,6.09
2016-05-16T00:17:26.021Z,6.19
2016-05-16T00:18:27.444Z,6.31
2016-05-16T00:19:28.963Z,6.32
2016-05-16T00:20:26.544Z,6.26
2016-05-16T00:21:26.172Z,6.34
2016-05-16T00:22:25.924Z,6.41
2016-05-16T00:23:26.115Z,6.44
2016-05-16T00:24:26.118Z,6.47
2016-05-16T00:25:26.168Z,6.56
2016-05-16T00:26:38.763Z,6.54
2016-05-16T00:27:26.032Z,6.59
2016-05-16T00:28:26.222Z,6.54
2016-05-16T00:29:38.928Z,6.59
2016-05-16T00:30:39.056Z,6.65
2016-05-16T00:31:26.229Z,6.72
2016-05-16T00:32:26.280Z,6.68
2016-05-16T00:33:29.282Z,6.7
2016-05-16T00:34:29.254Z,6.7
2016-05-16T00:35:26.319Z,6.68
2016-05-16T00:36:39.056Z,6.65
2016-05-16T00:37:26.184Z,6.75
2016-05-16T00:38:45.592Z,6.83
2016-05-16T00:39:39.095Z,6.78
2016-05-16T00:40:26.364Z,6.78
2016-05-16T00:41:26.445Z,6.8
2016-05-16T00:42:26.400Z,6.77
2016-05-16T00:43:26.466Z,6.85
2016-05-16T00:44:26.436Z,6.83
2016-05-16T00:45:39.221Z,6.89
2016-05-16T00:46:39.036Z,6.83
2016-05-16T00:47:45.695Z,6.87
2016-05-16T00:48:26.479Z,6.85
2016-05-16T00:49:57.653Z,6.83
2016-05-16T00:50:35.578Z,6.86
2016-05-16T00:51:35.705Z,6.92
2016-05-16T00:52:48.458Z,6.86
2016-05-16T00:53:35.743Z,6.9
2016-05-16T00:54:35.621Z,6.92
2016-05-16T00:55:35.748Z,6.87
2016-05-16T00:56:35.782Z,6.85
2016-05-16T00:57:35.785Z,6.92
2016-05-16T00:58:54.882Z,6.9
2016-05-16T00:59:48.414Z,6.9
2016-05-16T01:01:01.511Z,6.9
2016-05-16T01:01:45.310Z,6.87
2016-05-16T01:02:45.329Z,7
2016-05-16T01:03:58.066Z,6.96
2016-05-16T01:04:45.600Z,6.96
2016-05-16T01:05:45.196Z,7
2016-05-16T01:06:45.386Z,6.96
2016-05-16T01:07:45.406Z,6.96
2016-05-16T01:08:58.142Z,6.96
2016-05-16T01:09:48.520Z,7.05
2016-05-16T01:10:45.429Z,7.05
2016-05-16T01:11:48.322Z,7
2016-05-16T01:12:45.325Z,6.97
2016-05-16T01:13:58.234Z,7.03
2016-05-16T01:14:45.503Z,7.03
2016-05-16T01:15:45.364Z,6.93
2016-05-16T01:16:45.538Z,7.03
2016-05-16T01:17:48.432Z,6.96
2016-05-16T01:18:58.294Z,6.93
2016-05-16T01:19:51.969Z,6.96
2016-05-16T01:20:45.628Z,6.97
2016-05-16T01:21:48.646Z,7
2016-05-16T01:22:45.632Z,6.97
2016-05-16T01:23:45.652Z,6.92
2016-05-16T01:25:04.889Z,6.92
2016-05-16T01:25:45.657Z,6.86
2016-05-16T01:26:45.721Z,6.86
2016-05-16T01:28:04.928Z,6.83
2016-05-16T01:28:45.742Z,6.83
2016-05-16T01:30:45.779Z,6.68
2016-05-16T01:31:45.782Z,6.71
2016-05-16T01:32:45.816Z,6.7
2016-05-16T01:33:45.835Z,6.62
2016-05-16T01:35:05.118Z,6.62
2016-05-16T01:35:46.698Z,6.65
2016-05-16T01:37:04.733Z,6.56
2016-05-16T01:37:45.737Z,6.57
2016-05-16T01:39:46.006Z,6.57
2016-05-16T01:40:45.760Z,6.56
2016-05-16T01:41:47.200Z,6.6
2016-05-16T01:42:45.983Z,6.6
2016-05-16T01:43:45.815Z,6.62
2016-05-16T01:44:45.989Z,6.71
2016-05-16T01:45:45.850Z,6.72
2016-05-16T01:46:46.026Z,6.74
2016-05-16T01:47:46.028Z,6.82
2016-05-16T01:48:46.046Z,6.8
2016-05-16T01:49:45.769Z,6.78
2016-05-16T01:50:45.802Z,6.85
2016-05-16T01:51:46.116Z,6.74
2016-05-16T01:52:46.191Z,6.74
2016-05-16T01:54:05.344Z,6.67
2016-05-16T01:54:46.354Z,6.7
2016-05-16T01:56:17.671Z,6.67
2016-05-16T01:56:55.890Z,6.67
2016-05-16T01:57:55.907Z,6.72
2016-05-16T01:58:55.956Z,6.71
2016-05-16T01:59:57.583Z,6.65
2016-05-16T02:01:08.750Z,6.68
2016-05-16T02:01:56.079Z,6.57
2016-05-16T02:02:56.056Z,6.6
2016-05-16T02:03:56.096Z,6.57
2016-05-16T02:05:08.877Z,6.62
2016-05-16T02:06:08.867Z,6.7
2016-05-16T02:06:55.992Z,6.72
2016-05-16T02:07:56.012Z,6.68
2016-05-16T02:08:56.172Z,6.85
2016-05-16T02:09:56.209Z,6.86
2016-05-16T02:10:55.901Z,6.78
2016-05-16T02:11:57.655Z,6.75
2016-05-16T02:12:56.236Z,6.74
2016-05-16T02:14:08.993Z,6.8
2016-05-16T02:15:09.012Z,6.78
2016-05-16T02:16:15.468Z,6.71
2016-05-16T02:16:56.156Z,6.57
2016-05-16T02:19:05.771Z,6.39
2016-05-16T02:20:25.009Z,6.31
2016-05-16T02:21:05.666Z,6.31
2016-05-16T02:22:05.841Z,6.17
2016-05-16T02:23:18.595Z,6.12
2016-05-16T02:24:15.178Z,5.99
2016-05-16T02:25:05.896Z,5.97
2016-05-16T02:26:24.901Z,5.91
2016-05-16T02:27:05.917Z,5.76
2016-05-16T02:28:18.672Z,5.65
2016-05-16T02:29:05.938Z,5.65
2016-05-16T02:30:05.987Z,5.61
2016-05-16T02:31:05.819Z,5.56
2016-05-16T02:32:06.008Z,5.58
2016-05-16T02:33:06.027Z,5.43
2016-05-16T02:34:05.872Z,5.47
2016-05-16T02:35:06.189Z,5.47
2016-05-16T02:36:06.050Z,5.36
2016-05-16T02:37:06.069Z,5.34
2016-05-16T02:38:05.930Z,5.33
2016-05-16T02:39:05.933Z,5.34
2016-05-16T02:40:06.108Z,5.28
2016-05-16T02:41:18.879Z,5.22
2016-05-16T02:42:05.988Z,5.18
2016-05-16T02:43:05.850Z,5.16
2016-05-16T02:44:18.902Z,5.04
2016-05-16T02:45:07.606Z,5.02
2016-05-16T02:46:18.970Z,5.01
2016-05-16T02:47:06.079Z,5.01
2016-05-16T02:48:06.255Z,4.87
2016-05-16T02:49:06.257Z,4.87
2016-05-16T02:50:19.075Z,4.9
2016-05-16T02:51:07.684Z,4.95
2016-05-16T02:52:25.564Z,4.9
2016-05-16T02:53:06.314Z,4.86
2016-05-16T02:54:06.443Z,4.78
2016-05-16T02:55:06.195Z,4.84
2016-05-16T02:56:06.214Z,4.74
2016-05-16T02:57:06.372Z,4.61
2016-05-16T02:58:06.422Z,4.67
2016-05-16T02:59:06.253Z,4.64
2016-05-16T03:00:06.272Z,4.61
2016-05-16T03:01:19.011Z,4.74
2016-05-16T03:02:19.030Z,4.67
2016-05-16T03:03:06.467Z,4.76
2016-05-16T03:04:06.485Z,4.7
2016-05-16T03:05:06.456Z,4.74
2016-05-16T03:06:06.505Z,4.7
2016-05-16T03:07:06.633Z,4.64
2016-05-16T03:08:06.543Z,4.63
2016-05-16T03:09:06.561Z,4.63
2016-05-16T03:10:06.423Z,4.67
2016-05-16T03:11:06.582Z,4.67
2016-05-16T03:12:06.585Z,4.68
2016-05-16T03:13:06.619Z,4.67
2016-05-16T03:14:06.605Z,4.66
2016-05-16T03:15:06.499Z,4.7
2016-05-16T03:16:06.657Z,4.74
2016-05-16T03:17:06.692Z,4.67
2016-05-16T03:18:08.085Z,4.75
2016-05-16T03:19:06.698Z,4.79
2016-05-16T03:20:07.653Z,4.74
2016-05-16T03:21:06.781Z,4.75
2016-05-16T03:22:06.799Z,4.75
2016-05-16T03:23:06.754Z,4.76
2016-05-16T03:24:06.617Z,4.89
2016-05-16T03:25:06.776Z,4.97
2016-05-16T03:26:06.795Z,5
2016-05-16T03:27:06.828Z,5.05
2016-05-16T03:28:06.831Z,5
2016-05-16T03:29:06.692Z,5.13
2016-05-16T03:30:06.867Z,5.16
2016-05-16T03:31:06.886Z,5.23
2016-05-16T03:32:06.889Z,5.28
2016-05-16T03:33:06.828Z,5.31
2016-05-16T03:34:06.909Z,5.33
2016-05-16T03:35:07.194Z,5.29
2016-05-16T03:36:06.961Z,5.31
2016-05-16T03:37:07.011Z,5.34
2016-05-16T03:38:06.967Z,5.23
2016-05-16T03:39:06.891Z,5.28
2016-05-16T03:40:07.019Z,5.28
2016-05-16T03:41:07.038Z,5.31
2016-05-16T03:42:07.024Z,5.36
2016-05-16T03:43:07.043Z,5.31
2016-05-16T03:44:07.077Z,5.38
2016-05-16T03:45:07.096Z,5.4
2016-05-16T03:46:07.113Z,5.43
2016-05-16T03:47:19.838Z,5.51
2016-05-16T03:48:07.151Z,5.36
2016-05-16T03:49:07.137Z,5.47
2016-05-16T03:50:07.218Z,5.43
2016-05-16T03:51:07.018Z,5.59
2016-05-16T03:52:07.036Z,5.55
2016-05-16T03:53:07.195Z,5.59
2016-05-16T03:54:07.229Z,5.65
2016-05-16T03:55:07.247Z,5.7
2016-05-16T03:56:07.109Z,5.7
2016-05-16T03:57:07.268Z,5.74
2016-05-16T03:58:07.303Z,5.74
2016-05-16T03:59:07.289Z,5.8
2016-05-16T04:00:07.308Z,5.9
2016-05-16T04:01:07.185Z,5.95
2016-05-16T04:02:07.344Z,5.91
2016-05-16T04:03:07.347Z,5.94
2016-05-16T04:04:07.350Z,6.06
2016-05-16T04:05:08.211Z,6.05
2016-05-16T04:06:07.495Z,6.12
2016-05-16T04:07:20.158Z,6.12
2016-05-16T04:08:07.267Z,6.09
2016-05-16T04:09:07.457Z,6.13
2016-05-16T04:10:20.212Z,6.12
2016-05-16T04:11:07.477Z,6.12
2016-05-16T04:12:07.480Z,6.1
2016-05-16T04:13:07.514Z,6.13
2016-05-16T04:14:07.548Z,6.12
2016-05-16T04:15:07.551Z,6.12
2016-05-16T04:16:07.694Z,6.1
2016-05-16T04:17:07.572Z,6.19
2016-05-16T04:18:07.637Z,6.1
2016-05-16T04:19:07.593Z,6.15
2016-05-16T04:20:08.267Z,6.09
2016-05-16T04:21:07.614Z,6.15
2016-05-16T04:22:07.663Z,6.06
2016-05-16T04:23:07.666Z,6.13
2016-05-16T04:24:07.684Z,6.09
2016-05-16T04:25:07.671Z,6.09
2016-05-16T04:26:07.721Z,6.12
2016-05-16T04:27:07.708Z,6.12
2016-05-16T04:28:07.570Z,6.2
2016-05-16T04:29:07.745Z,6.22
2016-05-16T04:30:07.764Z,6.29
2016-05-16T04:31:07.781Z,6.26
2016-05-16T04:32:07.784Z,6.39
2016-05-16T04:33:07.833Z,6.34
2016-05-16T04:34:07.680Z,6.38
2016-05-16T04:35:08.542Z,6.46
2016-05-16T04:36:07.701Z,6.53
2016-05-16T04:37:07.719Z,6.57
2016-05-16T04:38:07.910Z,6.62
2016-05-16T04:39:07.756Z,6.62
2016-05-16T04:40:07.791Z,6.7
2016-05-16T04:41:07.964Z,6.78
2016-05-16T04:42:07.967Z,6.77
2016-05-16T04:43:07.970Z,6.77
2016-05-16T04:44:07.847Z,6.87
2016-05-16T04:45:07.991Z,6.92
2016-05-16T04:46:07.868Z,7.03
2016-05-16T04:47:07.871Z,7.04
2016-05-16T04:48:08.062Z,7.11
2016-05-16T04:49:08.065Z,7.07
2016-05-16T04:50:08.098Z,7.21
2016-05-16T04:51:08.085Z,7.23
2016-05-16T04:52:08.103Z,7.28
2016-05-16T04:53:08.122Z,7.33
2016-05-16T04:54:08.140Z,7.4
2016-05-16T04:55:08.502Z,7.53
2016-05-16T04:56:08.004Z,7.66
2016-05-16T04:57:08.039Z,7.69
2016-05-16T04:58:08.292Z,7.81
2016-05-16T04:59:08.075Z,7.96
2016-05-16T05:00:08.390Z,8.14
2016-05-16T05:01:08.503Z,8.2
2016-05-16T05:02:08.318Z,8.53
2016-05-16T05:03:08.555Z,9.18
2016-05-16T05:04:08.401Z,10.25
2016-05-16T05:05:08.638Z,11.4
2016-05-16T05:06:08.391Z,12.43
2016-05-16T05:07:08.456Z,13.27
2016-05-16T05:08:08.366Z,14.2
2016-05-16T05:09:08.414Z,14.82
2016-05-16T05:10:08.417Z,15.55
2016-05-16T05:11:11.467Z,16.17
2016-05-16T05:12:21.175Z,16.68
2016-05-16T05:13:21.069Z,17.23
2016-05-16T05:14:08.569Z,17.46
2016-05-16T05:15:08.494Z,17.53
2016-05-16T05:16:08.622Z,17.87
2016-05-16T05:17:08.546Z,18.12
2016-05-16T05:18:08.720Z,18.51
2016-05-16T05:19:08.582Z,18.81
2016-05-16T05:20:08.741Z,18.96
2016-05-16T05:21:08.635Z,19.23
2016-05-16T05:22:08.637Z,19.37
2016-05-16T05:23:08.781Z,19.49
2016-05-16T05:24:08.517Z,19.6
2016-05-16T05:25:08.677Z,19.79
2016-05-16T05:26:08.773Z,20.04
2016-05-16T05:27:08.604Z,20.07
2016-05-16T05:28:08.778Z,20.27
2016-05-16T05:29:08.812Z,20.68
2016-05-16T05:30:08.815Z,20.92
2016-05-16T05:31:10.255Z,21.05
2016-05-16T05:32:08.867Z,21.2
2016-05-16T05:33:08.901Z,21.26
2016-05-16T05:34:08.842Z,21.74
2016-05-16T05:35:09.923Z,22.04
2016-05-16T05:36:09.097Z,22.1
2016-05-16T05:37:08.989Z,22.26
2016-05-16T05:38:09.134Z,22.34
2016-05-16T05:39:08.870Z,22.65
2016-05-16T05:40:09.077Z,22.78
2016-05-16T05:41:09.094Z,23.04
2016-05-16T05:42:09.113Z,23.52
2016-05-16T05:43:08.990Z,23.94
2016-05-16T05:44:09.166Z,24.16
2016-05-16T05:45:09.199Z,23.73
2016-05-16T05:46:09.218Z,23.89
2016-05-16T05:47:09.376Z,24.21
2016-05-16T05:48:09.270Z,24.46
2016-05-16T05:49:09.396Z,24.63
2016-05-16T05:50:09.338Z,24.62
2016-05-16T05:51:09.199Z,24.61
2016-05-16T05:52:28.657Z,24.74
2016-05-16T05:53:09.407Z,24.18
2016-05-16T05:54:09.443Z,24
2016-05-16T05:55:12.507Z,24.44
2016-05-16T05:56:09.495Z,24.4
2016-05-16T05:57:09.544Z,24.07
2016-05-16T05:58:09.562Z,24.14
2016-05-16T05:59:09.565Z,24.06
2016-05-16T06:00:09.645Z,24.62
2016-05-16T06:01:09.633Z,25.07
2016-05-16T06:02:09.667Z,25.4
2016-05-16T06:03:09.701Z,25.71
2016-05-16T06:04:09.594Z,26.16
2016-05-16T06:05:09.847Z,26.07
2016-05-16T06:06:09.631Z,26.06
2016-05-16T06:07:09.820Z,25.68
2016-05-16T06:08:09.839Z,25.25
2016-05-16T06:09:09.936Z,24.69
2016-05-16T06:10:09.735Z,24.25
2016-05-16T06:11:09.941Z,23.92
2016-05-16T06:12:12.818Z,23.95
2016-05-16T06:13:09.837Z,23.33
2016-05-16T06:14:11.433Z,23.01
2016-05-16T06:15:10.061Z,22.92
2016-05-16T06:16:10.094Z,23.17
2016-05-16T06:17:09.941Z,22.08
2016-05-16T06:18:10.146Z,21.66
2016-05-16T06:19:10.165Z,21.45
2016-05-16T06:20:10.356Z,20.68
2016-05-16T06:21:10.218Z,19.6
2016-05-16T06:22:10.096Z,19.05
2016-05-16T06:23:10.301Z,18.78
2016-05-16T06:24:10.335Z,19.47
2016-05-16T06:25:10.338Z,19.78
2016-05-16T06:26:10.215Z,21.05
2016-05-16T06:27:11.906Z,22
2016-05-16T06:28:10.284Z,22.03
2016-05-16T06:29:10.458Z,22.92
2016-05-16T06:30:10.320Z,23.54
2016-05-16T06:31:10.542Z,23.95
2016-05-16T06:32:10.544Z,24.51
2016-05-16T06:33:10.579Z,24
2016-05-16T06:34:10.611Z,23.63
2016-05-16T06:35:11.037Z,22.83
2016-05-16T06:36:10.665Z,22.56
2016-05-16T06:37:10.526Z,22.1
2016-05-16T06:38:10.733Z,23.26
2016-05-16T06:39:10.750Z,23.86
2016-05-16T06:40:10.816Z,24.14
2016-05-16T06:41:10.819Z,23.79
2016-05-16T06:42:10.759Z,24.18
2016-05-16T06:43:10.855Z,24.78
2016-05-16T06:44:11.264Z,25.33
2016-05-16T06:45:30.332Z,26.11
2016-05-16T06:46:10.941Z,26.3
2016-05-16T06:47:10.991Z,26.23
2016-05-16T06:48:11.010Z,26.52
2016-05-16T06:49:11.059Z,26.85
2016-05-16T06:50:11.077Z,27.47
2016-05-16T06:51:11.252Z,28.1
2016-05-16T06:52:10.974Z,27.25
2016-05-16T06:53:11.288Z,27.07
2016-05-16T06:54:11.197Z,27.5
2016-05-16T06:55:11.231Z,27.29
2016-05-16T06:56:11.296Z,27.07
2016-05-16T06:57:11.299Z,26.59
2016-05-16T06:58:11.458Z,26.96
2016-05-16T06:59:11.195Z,27.68
2016-05-16T07:00:11.448Z,28.49
2016-05-16T07:01:11.434Z,28.7
2016-05-16T07:02:11.968Z,28.23
2016-05-16T07:03:11.487Z,27.33
2016-05-16T07:04:11.505Z,26.67
2016-05-16T07:05:11.384Z,26.98
2016-05-16T07:06:11.589Z,27.2
2016-05-16T07:07:11.622Z,27.68
2016-05-16T07:08:11.657Z,27.95
2016-05-16T07:09:11.769Z,27.45
2016-05-16T07:10:11.709Z,26.91
2016-05-16T07:11:11.774Z,26.19
2016-05-16T07:12:11.777Z,25.16
2016-05-16T07:13:11.717Z,25.06
2016-05-16T07:14:11.830Z,24.65
2016-05-16T07:15:11.847Z,24.5
2016-05-16T07:16:11.975Z,24.82
2016-05-16T07:17:12.228Z,24.48
2016-05-16T07:18:11.918Z,24.82
2016-05-16T07:19:12.046Z,25.73
2016-05-16T07:20:12.048Z,26.42
2016-05-16T07:21:12.113Z,26.1
2016-05-16T07:22:12.116Z,26.24
2016-05-16T07:23:12.119Z,26.39
2016-05-16T07:24:12.185Z,25.26
2016-05-16T07:25:12.202Z,23.52
2016-05-16T07:26:12.205Z,23.77
2016-05-16T07:27:12.254Z,23.51
2016-05-16T07:28:12.273Z,22.31
2016-05-16T07:29:12.354Z,20.96
2016-05-16T07:30:12.340Z,19.75
2016-05-16T07:31:12.454Z,19.47
2016-05-16T07:32:12.424Z,20.73
2016-05-16T07:33:12.348Z,22.31
2016-05-16T07:34:12.492Z,22.68
2016-05-16T07:35:12.370Z,22.44
2016-05-16T07:36:12.670Z,21.37
2016-05-16T07:37:12.562Z,20.19
2016-05-16T07:38:12.690Z,18.92
2016-05-16T07:39:12.490Z,17.93
2016-05-16T07:40:12.665Z,17.14
2016-05-16T07:41:12.528Z,17.12
2016-05-16T07:42:12.716Z,17.47
2016-05-16T07:43:12.798Z,17.19
2016-05-16T07:44:12.769Z,17.68
2016-05-16T07:45:12.819Z,18.97
2016-05-16T07:46:15.871Z,19.92
2016-05-16T07:47:12.871Z,19.93
2016-05-16T07:48:12.576Z,19.3
2016-05-16T07:49:12.813Z,19.53
2016-05-16T07:50:13.583Z,19.11
2016-05-16T07:51:12.975Z,18.63
2016-05-16T07:52:12.853Z,19.01
2016-05-16T07:53:13.027Z,19.6
2016-05-16T07:54:12.905Z,20.11
2016-05-16T07:55:12.940Z,19.39
2016-05-16T07:56:13.160Z,18.46
2016-05-16T07:57:12.976Z,17.98
2016-05-16T07:58:13.259Z,17.31
2016-05-16T07:59:13.044Z,16.97
2016-05-16T08:00:13.125Z,17.49
2016-05-16T08:01:13.268Z,17.27
2016-05-16T08:02:13.287Z,16.65
2016-05-16T08:03:13.304Z,16
2016-05-16T08:04:13.354Z,15.39
2016-05-16T08:05:13.356Z,15.14
2016-05-16T08:06:13.375Z,14.87
2016-05-16T08:07:13.409Z,14.81
2016-05-16T08:08:13.443Z,14.86
2016-05-16T08:09:13.523Z,14.89
2016-05-16T08:10:13.480Z,15.1
2016-05-16T08:11:13.514Z,15.15
2016-05-16T08:12:13.547Z,15.15
2016-05-16T08:13:13.581Z,15.1
2016-05-16T08:14:13.646Z,14.67
2016-05-16T08:15:13.619Z,14.82
2016-05-16T08:16:13.622Z,14.53
2016-05-16T08:17:13.670Z,14.68
2016-05-16T08:18:13.533Z,14.82
2016-05-16T08:19:13.691Z,15
2016-05-16T08:20:13.725Z,15.26
2016-05-16T08:21:45.027Z,15.66
2016-05-16T08:22:13.637Z,15.72
2016-05-16T08:23:18.908Z,15.72
2016-05-16T08:24:20.692Z,15.17
2016-05-16T08:25:13.849Z,14.79
2016-05-16T08:26:13.866Z,14.25
2016-05-16T08:27:13.885Z,14.08
2016-05-16T08:28:13.918Z,13.86
2016-05-16T08:29:13.937Z,13.7
2016-05-16T08:30:13.954Z,13.4
2016-05-16T08:31:14.051Z,13.39
2016-05-16T08:32:13.868Z,13.3
2016-05-16T08:33:13.948Z,13.36
2016-05-16T08:34:14.060Z,13.43
2016-05-16T08:35:14.109Z,13.5
2016-05-16T08:36:14.096Z,13.68
2016-05-16T08:37:14.131Z,13.95
2016-05-16T08:38:14.133Z,14.12
2016-05-16T08:39:14.167Z,14.31
2016-05-16T08:40:14.201Z,14.4
2016-05-16T08:41:14.047Z,14.38
2016-05-16T08:42:14.269Z,14.55
2016-05-16T08:43:14.240Z,14.73
2016-05-16T08:44:14.274Z,14.67
2016-05-16T08:45:14.309Z,14.7
2016-05-16T08:46:14.357Z,14.86
2016-05-16T08:47:14.360Z,14.97
2016-05-16T08:48:14.395Z,14.93
2016-05-16T08:49:14.381Z,15.14
2016-05-16T08:50:14.103Z,14.97
2016-05-16T08:51:15.949Z,14.77
2016-05-16T08:52:14.452Z,14.68
2016-05-16T08:53:14.424Z,14.78
2016-05-16T08:54:14.519Z,14.78
2016-05-16T08:55:14.522Z,14.59
2016-05-16T08:56:14.385Z,14.49
2016-05-16T08:57:14.575Z,14.58
2016-05-16T08:58:14.609Z,14.56
2016-05-16T08:59:14.596Z,14.61
2016-05-16T09:00:14.629Z,14.61
2016-05-16T09:01:14.663Z,14.81
2016-05-16T09:02:14.525Z,14.73
2016-05-16T09:03:14.700Z,14.52
2016-05-16T09:04:14.719Z,14.61
2016-05-16T09:05:15.081Z,14.63
2016-05-16T09:06:14.834Z,14.87
2016-05-16T09:07:14.804Z,15.02
2016-05-16T09:08:14.682Z,15.26
2016-05-16T09:09:27.594Z,15.73
2016-05-16T09:10:14.859Z,16.03
2016-05-16T09:11:40.553Z,16.28
2016-05-16T09:12:25.821Z,16.83
2016-05-16T09:13:25.964Z,17.23
2016-05-16T09:14:25.998Z,17.38
2016-05-16T09:15:29.047Z,16.92
2016-05-16T09:16:29.066Z,16.26
2016-05-16T09:17:26.052Z,16.1
2016-05-16T09:18:26.086Z,15.51
2016-05-16T09:19:26.106Z,15.14
2016-05-16T09:20:26.436Z,14.78
2016-05-16T09:21:26.174Z,14.63
2016-05-16T09:22:26.191Z,14.45
2016-05-16T09:23:26.225Z,14.25
2016-05-16T09:24:38.978Z,14.18
2016-05-16T09:25:26.263Z,13.98
2016-05-16T09:26:26.327Z,13.98
2016-05-16T09:27:26.268Z,13.98
2016-05-16T09:28:26.161Z,14.11
2016-05-16T09:29:26.351Z,14.11
2016-05-16T09:30:26.369Z,14.13
2016-05-16T09:31:26.387Z,14.2
2016-05-16T09:32:26.390Z,14.31
2016-05-16T09:33:26.549Z,14.28
2016-05-16T09:34:45.693Z,14.37
2016-05-16T09:35:30.102Z,14.48
2016-05-16T09:36:55.401Z,14.85
2016-05-16T09:37:29.748Z,14.99
2016-05-16T09:38:29.750Z,15.55
2016-05-16T09:39:29.925Z,15.8
2016-05-16T09:40:48.990Z,15.44
2016-05-16T09:41:29.961Z,14.89
2016-05-16T09:42:29.761Z,14.28
2016-05-16T09:43:30.279Z,14.01
2016-05-16T09:44:29.986Z,13.4
2016-05-16T09:45:30.097Z,13.27
2016-05-16T09:46:29.991Z,12.87
2016-05-16T09:47:30.102Z,12.72
2016-05-16T09:48:29.980Z,12.62
2016-05-16T09:49:29.999Z,12.48
2016-05-16T09:50:30.001Z,12.43
2016-05-16T09:51:30.083Z,12.33
2016-05-16T09:52:30.053Z,12.32
2016-05-16T09:53:30.260Z,12.25
2016-05-16T09:54:30.105Z,12.33
2016-05-16T09:55:30.140Z,12.32
2016-05-16T09:56:30.033Z,12.35
2016-05-16T09:57:30.177Z,12.45
2016-05-16T09:58:30.180Z,12.5
2016-05-16T09:59:30.197Z,12.48
2016-05-16T10:00:30.341Z,12.61
2016-05-16T10:01:30.265Z,12.51
2016-05-16T10:02:30.284Z,12.72
2016-05-16T10:03:30.301Z,12.76
2016-05-16T10:04:30.414Z,12.91
2016-05-16T10:05:30.198Z,13.11
2016-05-16T10:06:30.388Z,13.27
2016-05-16T10:07:30.391Z,13.39
2016-05-16T10:08:30.221Z,13.6
2016-05-16T10:09:30.428Z,13.79
2016-05-16T10:10:30.445Z,13.83
2016-05-16T10:11:30.448Z,13.98
2016-05-16T10:12:30.482Z,14.11
2016-05-16T10:13:30.845Z,14.25
2016-05-16T10:15:03.832Z,14.38
2016-05-16T10:15:30.772Z,14.31
2016-05-16T10:16:30.572Z,14.45
2016-05-16T10:17:30.589Z,14.44
2016-05-16T10:18:30.623Z,14.51
2016-05-16T10:19:30.719Z,14.53
2016-05-16T10:20:30.489Z,14.7
2016-05-16T10:21:30.647Z,14.96
2016-05-16T10:22:30.681Z,15.04
2016-05-16T10:23:30.731Z,15.44
2016-05-16T10:24:30.671Z,15.85
2016-05-16T10:25:30.767Z,16.43
2016-05-16T10:26:30.769Z,16.94
2016-05-16T10:27:30.804Z,17.19
2016-05-16T10:28:30.979Z,17.34
2016-05-16T10:29:30.841Z,16.91
2016-05-16T10:30:30.906Z,16.61
2016-05-16T10:31:30.877Z,15.94
2016-05-16T10:32:30.911Z,15.54
2016-05-16T10:33:30.788Z,15.27
2016-05-16T10:34:30.948Z,14.92
2016-05-16T10:35:30.981Z,14.87
2016-05-16T10:36:31.001Z,14.89
2016-05-16T10:37:31.034Z,14.94
2016-05-16T10:38:43.645Z,14.71
2016-05-16T10:39:31.087Z,14.77
2016-05-16T10:40:30.933Z,14.82
2016-05-16T10:41:31.139Z,14.96
2016-05-16T10:42:30.985Z,15.1
2016-05-16T10:43:31.159Z,15.22
2016-05-16T10:44:31.209Z,15.23
2016-05-16T10:45:43.930Z,15.22
2016-05-16T10:46:31.230Z,15.11
2016-05-16T10:47:31.248Z,15.19
2016-05-16T10:48:31.361Z,15.25
2016-05-16T10:49:31.144Z,15.37
2016-05-16T10:50:31.334Z,15.7
2016-05-16T10:51:31.352Z,15.85
2016-05-16T10:52:31.465Z,15.84
2016-05-16T10:53:31.202Z,15.81
2016-05-16T10:54:31.424Z,15.75
2016-05-16T10:55:34.458Z,15.76
2016-05-16T10:56:44.038Z,15.7
2016-05-16T10:57:44.268Z,15.78
2016-05-16T10:58:50.772Z,15.81
2016-05-16T10:59:57.602Z,15.98
2016-05-16T11:00:57.402Z,15.83
2016-05-16T11:01:31.810Z,15.87
2016-05-16T11:04:12.729Z,15.98
2016-05-16T11:04:47.170Z,15.88
2016-05-16T11:05:47.237Z,15.99
2016-05-16T11:06:47.085Z,16.18
2016-05-16T11:08:00.016Z,16.25
2016-05-16T11:09:00.041Z,16.5
2016-05-16T11:11:22.676Z,16.84
2016-05-16T11:12:16.223Z,16.84
2016-05-16T11:13:31.482Z,16.65
2016-05-16T11:14:31.519Z,16.55
2016-05-16T11:15:31.398Z,16.24
2016-05-16T11:16:31.560Z,15.76
2016-05-16T11:17:31.595Z,15.44
2016-05-16T11:18:31.613Z,15.12
2016-05-16T11:19:31.649Z,15.26
2016-05-16T11:20:32.401Z,15.45
2016-05-16T11:21:31.515Z,15.3
2016-05-16T11:22:31.566Z,15.27
2016-05-16T11:23:31.771Z,15.22
2016-05-16T11:24:44.509Z,14.93
2016-05-16T11:25:31.683Z,15.17
2016-05-16T11:26:31.811Z,15.33
2016-05-16T11:27:31.720Z,15.26
2016-05-16T11:28:34.880Z,15.48
2016-05-16T11:29:31.850Z,15.45
2016-05-16T11:30:31.932Z,15.5
2016-05-16T11:31:31.919Z,15.44
2016-05-16T11:32:32.047Z,15.26
2016-05-16T11:33:31.972Z,15.39
2016-05-16T11:34:32.036Z,15.6
2016-05-16T11:35:31.992Z,15.69
2016-05-16T11:36:31.916Z,16.06
2016-05-16T11:37:32.060Z,16.03
2016-05-16T11:38:32.094Z,15.94
2016-05-16T11:39:32.097Z,16.25
2016-05-16T11:40:32.130Z,16.64
2016-05-16T11:41:32.149Z,16.82
2016-05-16T11:42:32.167Z,16.79
2016-05-16T11:43:32.248Z,16.47
2016-05-16T11:44:32.219Z,16.22
2016-05-16T11:45:32.253Z,16.12
2016-05-16T11:46:32.272Z,16.03
2016-05-16T11:47:32.274Z,15.84
2016-05-16T11:48:32.309Z,15.67
2016-05-16T11:49:38.905Z,15.51
2016-05-16T11:50:44.954Z,15.48
2016-05-16T11:51:51.598Z,15.52
2016-05-16T11:52:32.381Z,15.5
2016-05-16T11:53:32.415Z,15.33
2016-05-16T11:54:32.465Z,15.37
2016-05-16T11:55:32.484Z,15.44
2016-05-16T11:56:32.517Z,15.37
2016-05-16T11:57:32.379Z,15.48
2016-05-16T11:58:32.366Z,15.66
2016-05-16T11:59:32.589Z,15.65
2016-05-16T12:00:45.309Z,15.8
2016-05-16T12:01:32.609Z,15.78
2016-05-16T12:02:32.643Z,16
2016-05-16T12:03:32.661Z,16.06
2016-05-16T12:04:32.664Z,16.26
2016-05-16T12:05:32.541Z,16.41
2016-05-16T12:06:32.575Z,16.64
2016-05-16T12:07:45.500Z,16.74
2016-05-16T12:08:32.753Z,16.64
2016-05-16T12:09:58.833Z,16.64
2016-05-16T12:10:32.821Z,16.65
2016-05-16T12:11:32.839Z,16.31
2016-05-16T12:12:32.716Z,16.05
2016-05-16T12:13:32.907Z,16.18
2016-05-16T12:14:45.644Z,16.09
2016-05-16T12:15:35.772Z,16.03
2016-05-16T12:16:32.962Z,16.03
2016-05-16T12:17:32.808Z,16.24
2016-05-16T12:18:32.998Z,16.12
2016-05-16T12:19:33.032Z,16.13
2016-05-16T12:20:33.050Z,15.96
2016-05-16T12:21:32.912Z,16.25
2016-05-16T12:22:33.088Z,16.51
2016-05-16T12:23:33.137Z,16.51
2016-05-16T12:24:33.140Z,16.68
2016-05-16T12:25:34.611Z,16.68
2016-05-16T12:26:33.051Z,16.83
2016-05-16T12:27:33.257Z,16.95
2016-05-16T12:28:33.056Z,17.07
2016-05-16T12:29:52.465Z,17.1
2016-05-16T12:30:36.468Z,17.01
2016-05-16T12:31:55.518Z,16.55
2016-05-16T12:32:36.567Z,16.43
2016-05-16T12:33:36.367Z,16.08
2016-05-16T12:34:36.385Z,15.87
2016-05-16T12:35:36.731Z,15.84
2016-05-16T12:36:36.843Z,15.76
2016-05-16T12:37:36.628Z,15.8
2016-05-16T12:38:36.662Z,15.57
2016-05-16T12:39:36.664Z,15.62
2016-05-16T12:40:36.683Z,15.19
2016-05-16T12:41:36.716Z,14.66
2016-05-16T12:42:36.750Z,14.53
2016-05-16T12:43:36.768Z,14.49
2016-05-16T12:44:36.802Z,14.56
2016-05-16T12:45:36.837Z,14.55
2016-05-16T12:46:36.840Z,14.78
2016-05-16T12:47:49.607Z,15.14
2016-05-16T12:48:36.876Z,15
2016-05-16T12:49:36.926Z,15.02
2016-05-16T12:50:36.787Z,15.15
2016-05-16T12:51:36.947Z,15.12
2016-05-16T12:52:36.980Z,15.12
2016-05-16T12:53:36.984Z,14.89
2016-05-16T12:54:36.987Z,14.9
2016-05-16T12:55:36.895Z,14.97
2016-05-16T12:56:37.100Z,14.97
2016-05-16T12:57:37.087Z,14.78
2016-05-16T12:58:36.981Z,14.68
2016-05-16T12:59:36.968Z,14.51
2016-05-16T13:00:37.143Z,14.52
2016-05-16T13:01:37.036Z,14.59
2016-05-16T13:02:37.195Z,14.49
2016-05-16T13:03:37.228Z,14.41
2016-05-16T13:04:37.184Z,14.53
2016-05-16T13:05:37.531Z,14.82
2016-05-16T13:06:37.284Z,15.04
2016-05-16T13:07:37.161Z,15.39
2016-05-16T13:08:37.336Z,15.7
2016-05-16T13:09:37.183Z,15.75
2016-05-16T13:10:37.372Z,15.75
2016-05-16T13:11:37.375Z,15.87
2016-05-16T13:12:37.393Z,16
2016-05-16T13:13:37.458Z,16.37
2016-05-16T13:14:37.290Z,16.46